sensor_id;sensor_type;location;lat;lon;timestamp;temperature;humidity
21282;DHT22;10800;53.096;18.328;2024-03-23T00:53:01;8.90;99.90
21282;DHT22;10800;53.096;18.328;2024-03-23T00:58:09;8.80;99.90
21282;DHT22;10800;53.096;18.328;2024-03-23T01:03:21;8.70;99.90
21282;DHT22;10800;53.096;18.328;2024-03-23T01:08:39;8.70;99.90
21282;DHT22;10800;53.096;18.328;2024-03-23T01:13:53;8.70;99.90
21282;DHT22;10800;53.096;18.328;2024-03-23T01:19:14;8.70;99.90
21282;DHT22;10800;53.096;18.328;2024-03-23T01:24:25;8.60;99.90
21282;DHT22;10800;53.096;18.328;2024-03-23T01:29:39;8.60;99.90
21282;DHT22;10800;53.096;18.328;2024-03-23T01:35:09;8.60;99.90
21282;DHT22;10800;53.096;18.328;2024-03-23T01:40:21;8.50;99.90
21282;DHT22;10800;53.096;18.328;2024-03-23T01:45:33;8.60;99.90
21282;DHT22;10800;53.096;18.328;2024-03-23T01:50:44;8.60;99.90
21282;DHT22;10800;53.096;18.328;2024-03-23T01:55:52;8.50;99.90
21282;DHT22;10800;53.096;18.328;2024-03-23T02:01:00;8.50;99.90
21282;DHT22;10800;53.096;18.328;2024-03-23T02:06:07;8.50;99.90
21282;DHT22;10800;53.096;18.328;2024-03-23T02:11:14;8.50;99.90
21282;DHT22;10800;53.096;18.328;2024-03-23T02:16:26;8.40;99.90
21282;DHT22;10800;53.096;18.328;2024-03-23T02:21:32;8.40;99.90
21282;DHT22;10800;53.096;18.328;2024-03-23T02:26:41;8.40;99.90
21282;DHT22;10800;53.096;18.328;2024-03-23T02:31:55;8.40;99.90
21282;DHT22;10800;53.096;18.328;2024-03-23T02:37:13;8.30;99.90
21282;DHT22;10800;53.096;18.328;2024-03-23T02:42:19;8.30;99.90
21282;DHT22;10800;53.096;18.328;2024-03-23T02:47:31;8.30;99.90
21282;DHT22;10800;53.096;18.328;2024-03-23T02:52:40;8.30;99.90
21282;DHT22;10800;53.096;18.328;2024-03-23T02:57:47;8.30;99.90
21282;DHT22;10800;53.096;18.328;2024-03-23T03:03:00;8.30;99.90
21282;DHT22;10800;53.096;18.328;2024-03-23T03:08:08;8.20;99.90
21282;DHT22;10800;53.096;18.328;2024-03-23T03:13:25;8.20;99.90
21282;DHT22;10800;53.096;18.328;2024-03-23T03:18:37;8.20;99.90
21282;DHT22;10800;53.096;18.328;2024-03-23T03:23:53;8.10;99.90
21282;DHT22;10800;53.096;18.328;2024-03-23T03:29:06;8.10;99.90
21282;DHT22;10800;53.096;18.328;2024-03-23T03:34:15;8.10;99.90
21282;DHT22;10800;53.096;18.328;2024-03-23T03:39:30;8.00;99.90
21282;DHT22;10800;53.096;18.328;2024-03-23T03:44:39;8.00;99.90
21282;DHT22;10800;53.096;18.328;2024-03-23T03:49:48;8.00;99.90
21282;DHT22;10800;53.096;18.328;2024-03-23T03:55:09;7.90;99.90
21282;DHT22;10800;53.096;18.328;2024-03-23T04:00:16;7.90;99.90
21282;DHT22;10800;53.096;18.328;2024-03-23T04:05:25;7.90;99.90
21282;DHT22;10800;53.096;18.328;2024-03-23T04:10:33;7.90;99.90
21282;DHT22;10800;53.096;18.328;2024-03-23T04:15:55;7.90;99.90
21282;DHT22;10800;53.096;18.328;2024-03-23T04:21:06;7.90;99.90
21282;DHT22;10800;53.096;18.328;2024-03-23T04:26:15;7.90;99.90
21282;DHT22;10800;53.096;18.328;2024-03-23T04:31:21;7.90;99.90
21282;DHT22;10800;53.096;18.328;2024-03-23T04:36:33;7.90;99.90
21282;DHT22;10800;53.096;18.328;2024-03-23T04:41:46;7.80;99.90
21282;DHT22;10800;53.096;18.328;2024-03-23T04:46:58;7.80;99.90
21282;DHT22;10800;53.096;18.328;2024-03-23T04:52:09;7.80;99.90
21282;DHT22;10800;53.096;18.328;2024-03-23T04:57:17;7.80;99.90
21282;DHT22;10800;53.096;18.328;2024-03-23T05:02:22;7.80;99.90
21282;DHT22;10800;53.096;18.328;2024-03-23T05:07:30;7.80;99.90
21282;DHT22;10800;53.096;18.328;2024-03-23T05:12:35;7.80;99.90
21282;DHT22;10800;53.096;18.328;2024-03-23T05:17:42;7.80;99.90
21282;DHT22;10800;53.096;18.328;2024-03-23T05:22:47;7.80;99.90
21282;DHT22;10800;53.096;18.328;2024-03-23T05:27:53;7.80;99.90
21282;DHT22;10800;53.096;18.328;2024-03-23T05:32:58;7.80;99.90
21282;DHT22;10800;53.096;18.328;2024-03-23T05:38:03;7.80;99.90
21282;DHT22;10800;53.096;18.328;2024-03-23T05:43:10;7.80;99.90
21282;DHT22;10800;53.096;18.328;2024-03-23T05:48:18;7.80;99.90
21282;DHT22;10800;53.096;18.328;2024-03-23T05:53:25;7.80;99.90
21282;DHT22;10800;53.096;18.328;2024-03-23T05:58:31;7.90;99.90
21282;DHT22;10800;53.096;18.328;2024-03-23T06:03:37;7.90;99.90
21282;DHT22;10800;53.096;18.328;2024-03-23T06:08:44;7.90;99.90
21282;DHT22;10800;53.096;18.328;2024-03-23T06:13:51;7.90;99.90
21282;DHT22;10800;53.096;18.328;2024-03-23T06:18:57;7.80;99.90
21282;DHT22;10800;53.096;18.328;2024-03-23T06:24:04;8.00;99.90
21282;DHT22;10800;53.096;18.328;2024-03-23T06:29:13;8.30;99.90
21282;DHT22;10800;53.096;18.328;2024-03-23T06:34:19;8.10;99.90
21282;DHT22;10800;53.096;18.328;2024-03-23T06:39:27;7.90;99.90
21282;DHT22;10800;53.096;18.328;2024-03-23T06:44:44;8.00;99.90
21282;DHT22;10800;53.096;18.328;2024-03-23T06:50:14;8.10;99.90
21282;DHT22;10800;53.096;18.328;2024-03-23T06:55:25;8.10;99.90
21282;DHT22;10800;53.096;18.328;2024-03-23T07:00:35;8.20;99.90
21282;DHT22;10800;53.096;18.328;2024-03-23T07:05:48;8.20;99.90
21282;DHT22;10800;53.096;18.328;2024-03-23T07:10:53;8.20;99.90
21282;DHT22;10800;53.096;18.328;2024-03-23T07:16:01;8.30;99.90
21282;DHT22;10800;53.096;18.328;2024-03-23T07:21:10;8.30;99.90
21282;DHT22;10800;53.096;18.328;2024-03-23T07:26:18;8.30;99.90
21282;DHT22;10800;53.096;18.328;2024-03-23T07:31:34;8.30;99.90
21282;DHT22;10800;53.096;18.328;2024-03-23T07:36:46;8.30;99.90
21282;DHT22;10800;53.096;18.328;2024-03-23T07:41:59;8.20;99.90
21282;DHT22;10800;53.096;18.328;2024-03-23T07:47:13;8.30;99.90
21282;DHT22;10800;53.096;18.328;2024-03-23T07:52:28;8.30;99.90
21282;DHT22;10800;53.096;18.328;2024-03-23T07:57:40;8.30;99.90
21282;DHT22;10800;53.096;18.328;2024-03-23T08:02:50;8.30;99.90
21282;DHT22;10800;53.096;18.328;2024-03-23T08:08:00;8.30;99.90
21282;DHT22;10800;53.096;18.328;2024-03-23T08:13:08;8.20;99.90
21282;DHT22;10800;53.096;18.328;2024-03-23T08:18:14;8.20;99.90
21282;DHT22;10800;53.096;18.328;2024-03-23T08:23:33;8.10;99.90
21282;DHT22;10800;53.096;18.328;2024-03-23T08:28:48;8.20;99.90
21282;DHT22;10800;53.096;18.328;2024-03-23T08:34:01;8.30;99.90
21282;DHT22;10800;53.096;18.328;2024-03-23T08:39:16;8.30;99.90
21282;DHT22;10800;53.096;18.328;2024-03-23T08:44:23;8.30;99.90
21282;DHT22;10800;53.096;18.328;2024-03-23T08:49:44;8.30;99.90
21282;DHT22;10800;53.096;18.328;2024-03-23T08:55:06;8.30;99.90
21282;DHT22;10800;53.096;18.328;2024-03-23T09:00:19;8.40;99.90
21282;DHT22;10800;53.096;18.328;2024-03-23T09:05:47;8.60;99.90
21282;DHT22;10800;53.096;18.328;2024-03-23T09:11:00;8.60;99.90
21282;DHT22;10800;53.096;18.328;2024-03-23T09:16:19;8.40;99.90
21282;DHT22;10800;53.096;18.328;2024-03-23T09:21:29;8.30;99.90
21282;DHT22;10800;53.096;18.328;2024-03-23T09:26:38;8.20;99.90
21282;DHT22;10800;53.096;18.328;2024-03-23T09:31:46;8.20;99.90
21282;DHT22;10800;53.096;18.328;2024-03-23T09:36:58;8.10;99.90
21282;DHT22;10800;53.096;18.328;2024-03-23T09:42:07;8.20;99.90
21282;DHT22;10800;53.096;18.328;2024-03-23T09:47:14;8.00;99.90
21282;DHT22;10800;53.096;18.328;2024-03-23T09:52:24;8.00;99.90
21282;DHT22;10800;53.096;18.328;2024-03-23T09:57:29;8.00;99.90
21282;DHT22;10800;53.096;18.328;2024-03-23T10:02:34;8.10;99.90
21282;DHT22;10800;53.096;18.328;2024-03-23T10:07:40;8.20;99.90
21282;DHT22;10800;53.096;18.328;2024-03-23T10:12:47;8.30;99.90
21282;DHT22;10800;53.096;18.328;2024-03-23T10:17:55;8.00;99.90
21282;DHT22;10800;53.096;18.328;2024-03-23T10:23:00;7.60;99.90
21282;DHT22;10800;53.096;18.328;2024-03-23T10:28:06;7.50;99.90
21282;DHT22;10800;53.096;18.328;2024-03-23T10:33:17;7.50;99.90
21282;DHT22;10800;53.096;18.328;2024-03-23T10:38:26;7.40;99.90
21282;DHT22;10800;53.096;18.328;2024-03-23T10:43:37;7.50;99.90
21282;DHT22;10800;53.096;18.328;2024-03-23T10:48:53;7.60;99.90
21282;DHT22;10800;53.096;18.328;2024-03-23T10:59:20;7.50;99.90
21282;DHT22;10800;53.096;18.328;2024-03-23T11:04:37;7.60;99.90
21282;DHT22;10800;53.096;18.328;2024-03-23T11:09:48;7.80;99.90
21282;DHT22;10800;53.096;18.328;2024-03-23T11:15:06;8.10;99.90
21282;DHT22;10800;53.096;18.328;2024-03-23T11:20:30;8.20;99.90
21282;DHT22;10800;53.096;18.328;2024-03-23T11:25:31;8.20;99.90
21282;DHT22;10800;53.096;18.328;2024-03-23T11:30:41;8.20;99.90
21282;DHT22;10800;53.096;18.328;2024-03-23T11:35:49;8.30;99.90
21282;DHT22;10800;53.096;18.328;2024-03-23T11:41:02;8.30;99.90
21282;DHT22;10800;53.096;18.328;2024-03-23T11:46:10;8.20;99.90
21282;DHT22;10800;53.096;18.328;2024-03-23T11:51:32;8.10;99.90
21282;DHT22;10800;53.096;18.328;2024-03-23T11:57:07;7.90;99.90
21282;DHT22;10800;53.096;18.328;2024-03-23T12:02:14;7.70;99.90
21282;DHT22;10800;53.096;18.328;2024-03-23T12:07:25;7.60;99.90
21282;DHT22;10800;53.096;18.328;2024-03-23T12:12:37;7.50;99.90
21282;DHT22;10800;53.096;18.328;2024-03-23T12:17:45;7.40;99.90
21282;DHT22;10800;53.096;18.328;2024-03-23T12:22:50;7.40;99.90
21282;DHT22;10800;53.096;18.328;2024-03-23T12:27:58;7.40;99.90
21282;DHT22;10800;53.096;18.328;2024-03-23T12:33:10;7.40;99.90
21282;DHT22;10800;53.096;18.328;2024-03-23T12:38:22;7.50;99.90
21282;DHT22;10800;53.096;18.328;2024-03-23T12:43:28;7.60;99.90
21282;DHT22;10800;53.096;18.328;2024-03-23T12:48:35;7.50;99.90
21282;DHT22;10800;53.096;18.328;2024-03-23T12:53:43;7.30;99.90
21282;DHT22;10800;53.096;18.328;2024-03-23T12:58:55;7.30;99.90
21282;DHT22;10800;53.096;18.328;2024-03-23T13:04:02;7.20;99.90
21282;DHT22;10800;53.096;18.328;2024-03-23T13:09:14;7.10;99.90
21282;DHT22;10800;53.096;18.328;2024-03-23T13:14:21;7.10;99.90
21282;DHT22;10800;53.096;18.328;2024-03-23T13:19:31;7.10;99.90
21282;DHT22;10800;53.096;18.328;2024-03-23T13:24:45;7.10;99.90
21282;DHT22;10800;53.096;18.328;2024-03-23T13:30:01;7.00;99.90
21282;DHT22;10800;53.096;18.328;2024-03-23T13:35:28;7.00;99.90
21282;DHT22;10800;53.096;18.328;2024-03-23T13:40:37;6.90;99.90
21282;DHT22;10800;53.096;18.328;2024-03-23T13:45:49;6.80;99.90
21282;DHT22;10800;53.096;18.328;2024-03-23T13:51:05;6.80;99.90
21282;DHT22;10800;53.096;18.328;2024-03-23T13:56:13;6.80;99.90
21282;DHT22;10800;53.096;18.328;2024-03-23T14:01:27;6.60;99.90
21282;DHT22;10800;53.096;18.328;2024-03-23T14:06:33;6.50;99.90
21282;DHT22;10800;53.096;18.328;2024-03-23T14:11:45;6.50;99.90
21282;DHT22;10800;53.096;18.328;2024-03-23T14:16:57;6.40;99.90
21282;DHT22;10800;53.096;18.328;2024-03-23T14:22:05;6.30;99.90
21282;DHT22;10800;53.096;18.328;2024-03-23T14:27:13;6.20;99.90
21282;DHT22;10800;53.096;18.328;2024-03-23T14:32:23;6.20;99.90
21282;DHT22;10800;53.096;18.328;2024-03-23T14:37:33;6.10;99.90
21282;DHT22;10800;53.096;18.328;2024-03-23T14:42:43;6.00;99.90
21282;DHT22;10800;53.096;18.328;2024-03-23T14:47:55;6.00;99.90
21282;DHT22;10800;53.096;18.328;2024-03-23T14:53:01;5.90;99.90
21282;DHT22;10800;53.096;18.328;2024-03-23T14:58:12;5.80;99.90
21282;DHT22;10800;53.096;18.328;2024-03-23T15:03:24;5.60;99.90
21282;DHT22;10800;53.096;18.328;2024-03-23T15:08:34;5.60;99.90
21282;DHT22;10800;53.096;18.328;2024-03-23T15:14:04;5.60;99.90
21282;DHT22;10800;53.096;18.328;2024-03-23T15:19:25;5.50;99.90
21282;DHT22;10800;53.096;18.328;2024-03-23T15:24:52;5.60;99.90
21282;DHT22;10800;53.096;18.328;2024-03-23T15:30:03;5.40;99.90
21282;DHT22;10800;53.096;18.328;2024-03-23T15:35:15;5.40;99.90
21282;DHT22;10800;53.096;18.328;2024-03-23T15:40:24;5.40;99.90
21282;DHT22;10800;53.096;18.328;2024-03-23T15:45:38;5.40;99.90
21282;DHT22;10800;53.096;18.328;2024-03-23T15:50:55;5.40;99.90
21282;DHT22;10800;53.096;18.328;2024-03-23T15:56:24;5.40;99.90
21282;DHT22;10800;53.096;18.328;2024-03-23T16:01:33;5.30;99.90
21282;DHT22;10800;53.096;18.328;2024-03-23T16:07:01;5.30;99.90
21282;DHT22;10800;53.096;18.328;2024-03-23T16:12:24;5.30;99.90
21282;DHT22;10800;53.096;18.328;2024-03-23T16:17:31;5.40;99.90
21282;DHT22;10800;53.096;18.328;2024-03-23T16:22:42;5.40;99.90
21282;DHT22;10800;53.096;18.328;2024-03-23T16:27:51;5.30;99.90
21282;DHT22;10800;53.096;18.328;2024-03-23T16:33:01;5.30;99.90
21282;DHT22;10800;53.096;18.328;2024-03-23T16:38:08;5.30;99.90
21282;DHT22;10800;53.096;18.328;2024-03-23T16:43:19;5.30;99.90
21282;DHT22;10800;53.096;18.328;2024-03-23T16:48:32;5.30;99.90
21282;DHT22;10800;53.096;18.328;2024-03-23T16:53:43;5.20;99.90
21282;DHT22;10800;53.096;18.328;2024-03-23T16:58:54;5.20;99.90
21282;DHT22;10800;53.096;18.328;2024-03-23T17:04:06;5.20;99.90
21282;DHT22;10800;53.096;18.328;2024-03-23T17:09:17;5.10;99.90
21282;DHT22;10800;53.096;18.328;2024-03-23T17:14:26;5.10;99.90
21282;DHT22;10800;53.096;18.328;2024-03-23T17:19:39;5.00;99.90
21282;DHT22;10800;53.096;18.328;2024-03-23T17:25:03;4.90;99.90
21282;DHT22;10800;53.096;18.328;2024-03-23T17:30:21;4.80;99.90
21282;DHT22;10800;53.096;18.328;2024-03-23T17:35:45;4.70;99.90
21282;DHT22;10800;53.096;18.328;2024-03-23T17:40:58;4.70;99.90
21282;DHT22;10800;53.096;18.328;2024-03-23T17:46:06;4.70;99.90
21282;DHT22;10800;53.096;18.328;2024-03-23T17:51:22;4.70;99.90
21282;DHT22;10800;53.096;18.328;2024-03-23T17:56:34;4.70;99.90
21282;DHT22;10800;53.096;18.328;2024-03-23T18:02:00;4.50;99.90
21282;DHT22;10800;53.096;18.328;2024-03-23T18:07:08;4.40;99.90
21282;DHT22;10800;53.096;18.328;2024-03-23T18:12:16;4.40;99.90
21282;DHT22;10800;53.096;18.328;2024-03-23T18:17:27;4.40;99.90
21282;DHT22;10800;53.096;18.328;2024-03-23T18:22:44;4.40;99.90
21282;DHT22;10800;53.096;18.328;2024-03-23T18:27:51;4.40;99.90
21282;DHT22;10800;53.096;18.328;2024-03-23T18:33:00;4.40;99.90
21282;DHT22;10800;53.096;18.328;2024-03-23T18:38:25;4.40;99.90
21282;DHT22;10800;53.096;18.328;2024-03-23T18:43:40;4.40;99.90
21282;DHT22;10800;53.096;18.328;2024-03-23T18:49:00;4.40;99.90
21282;DHT22;10800;53.096;18.328;2024-03-23T18:54:07;4.40;99.90
21282;DHT22;10800;53.096;18.328;2024-03-23T18:59:17;4.30;99.90
21282;DHT22;10800;53.096;18.328;2024-03-23T19:04:23;4.30;99.90
21282;DHT22;10800;53.096;18.328;2024-03-23T19:09:29;4.30;99.90
21282;DHT22;10800;53.096;18.328;2024-03-23T19:14:50;4.30;99.90
21282;DHT22;10800;53.096;18.328;2024-03-23T19:19:59;4.20;99.90
21282;DHT22;10800;53.096;18.328;2024-03-23T19:25:13;4.10;99.90
21282;DHT22;10800;53.096;18.328;2024-03-23T19:30:25;4.00;99.90
21282;DHT22;10800;53.096;18.328;2024-03-23T19:35:58;3.90;99.90
21282;DHT22;10800;53.096;18.328;2024-03-23T19:41:08;3.80;99.90
21282;DHT22;10800;53.096;18.328;2024-03-23T19:46:34;3.70;99.90
21282;DHT22;10800;53.096;18.328;2024-03-23T19:51:42;3.70;99.90
21282;DHT22;10800;53.096;18.328;2024-03-23T19:56:54;3.60;99.90
21282;DHT22;10800;53.096;18.328;2024-03-23T20:02:05;3.60;99.90
21282;DHT22;10800;53.096;18.328;2024-03-23T20:07:13;3.60;99.90
21282;DHT22;10800;53.096;18.328;2024-03-23T20:12:22;3.60;99.90
21282;DHT22;10800;53.096;18.328;2024-03-23T20:17:28;3.60;99.90
21282;DHT22;10800;53.096;18.328;2024-03-23T20:22:34;3.50;99.90
21282;DHT22;10800;53.096;18.328;2024-03-23T20:27:39;3.50;99.90
21282;DHT22;10800;53.096;18.328;2024-03-23T20:32:46;3.40;99.90
21282;DHT22;10800;53.096;18.328;2024-03-23T20:37:57;3.40;99.90
21282;DHT22;10800;53.096;18.328;2024-03-23T20:43:38;3.30;99.90
21282;DHT22;10800;53.096;18.328;2024-03-23T20:49:16;3.20;99.90
21282;DHT22;10800;53.096;18.328;2024-03-23T20:54:23;3.10;99.90
21282;DHT22;10800;53.096;18.328;2024-03-23T20:59:34;3.10;99.90
21282;DHT22;10800;53.096;18.328;2024-03-23T21:04:39;3.00;99.90
21282;DHT22;10800;53.096;18.328;2024-03-23T21:09:47;3.00;99.90
21282;DHT22;10800;53.096;18.328;2024-03-23T21:15:21;2.90;99.90
21282;DHT22;10800;53.096;18.328;2024-03-23T21:20:35;2.70;99.90
21282;DHT22;10800;53.096;18.328;2024-03-23T21:25:57;2.60;99.90
21282;DHT22;10800;53.096;18.328;2024-03-23T21:31:07;2.50;99.90
21282;DHT22;10800;53.096;18.328;2024-03-23T21:36:23;2.40;99.90
21282;DHT22;10800;53.096;18.328;2024-03-23T21:42:00;2.50;99.90
21282;DHT22;10800;53.096;18.328;2024-03-23T21:47:16;2.50;99.90
21282;DHT22;10800;53.096;18.328;2024-03-23T21:52:25;2.40;99.90
21282;DHT22;10800;53.096;18.328;2024-03-23T21:57:32;2.40;99.90
21282;DHT22;10800;53.096;18.328;2024-03-23T22:02:38;2.30;99.90
21282;DHT22;10800;53.096;18.328;2024-03-23T22:07:46;2.20;99.90
21282;DHT22;10800;53.096;18.328;2024-03-23T22:12:51;2.10;99.90
21282;DHT22;10800;53.096;18.328;2024-03-23T22:17:57;2.10;99.90
21282;DHT22;10800;53.096;18.328;2024-03-23T22:23:05;2.00;99.90
21282;DHT22;10800;53.096;18.328;2024-03-23T22:28:12;1.90;99.90
21282;DHT22;10800;53.096;18.328;2024-03-23T22:33:21;2.00;99.90
21282;DHT22;10800;53.096;18.328;2024-03-23T22:38:30;2.00;99.90
21282;DHT22;10800;53.096;18.328;2024-03-23T22:43:36;2.00;99.90
21282;DHT22;10800;53.096;18.328;2024-03-23T22:48:42;2.00;99.90
21282;DHT22;10800;53.096;18.328;2024-03-23T22:53:47;2.00;99.90
21282;DHT22;10800;53.096;18.328;2024-03-23T22:58:53;1.90;99.90
21282;DHT22;10800;53.096;18.328;2024-03-23T23:04:02;1.90;99.90
21282;DHT22;10800;53.096;18.328;2024-03-23T23:09:10;1.80;99.90
21282;DHT22;10800;53.096;18.328;2024-03-23T23:14:16;1.70;99.90
21282;DHT22;10800;53.096;18.328;2024-03-23T23:19:21;1.70;99.90
21282;DHT22;10800;53.096;18.328;2024-03-23T23:24:26;1.70;99.90
21282;DHT22;10800;53.096;18.328;2024-03-23T23:29:34;1.70;99.90
21282;DHT22;10800;53.096;18.328;2024-03-23T23:34:43;1.80;99.90
21282;DHT22;10800;53.096;18.328;2024-03-23T23:39:52;1.90;99.90
21282;DHT22;10800;53.096;18.328;2024-03-23T23:44:57;2.00;99.90
21282;DHT22;10800;53.096;18.328;2024-03-23T23:50:21;2.20;99.90
21282;DHT22;10800;53.096;18.328;2024-03-23T23:55:26;2.20;99.90
